Bei Facebook empfehlenBei Twitter postenGoogle plusPinterest

Das Wetter im Erzgebirge am 17.04.2015

Wetter und Klima am 17.04.2015 Holzhau im Erzgebirge (630m ü.NN)
Letzte gemessene Temperatur und Uhrzeit der Messung23:45:00 Uhr-1.20 °C
Temperatur (Maximum / Höchstwert) und Uhrzeit der Messung15:00:00 Uhr9.90 °C
Temperatur (Minimum / Tiefstwert) und Uhrzeit der Messung23:30:00-1.40 °C
Errechneter Absolutwert der Temperaturschwankungen zwischen Tmin und Tmax des Tages11.30 K
Errechnete Tagesmitteltemperatur4.88229 °C
Gesamt - Niederschlag des Tages (in flüssiger Form)0.00 Liter / m²
Luftdruck (Maximum / Höchstwert) und Zeitpunkt der Messung23:45:00 Uhr1014.80 hPa
Luftdruck (Minimum / Tiefstwert) und Zeitpunkt der Messung06:00:00 Uhr1010.20 hPa
Errechneter Absolutwert der Luftdruckschwankungen des Tages4.60 hPa
Höchste gemessene Windgeschwindigkeit und Uhrzeit der Messung14:45:00 Uhr10.08 km/h
Errechnete Windhäufigkeit in Relation zu den Messwerten des Tages14.58333 %
Niedrigste Windkühle (Windchill) und Zeitpunkt der Messung23:30:00 Uhr-1.40 °C
Taupunkt (Maximum / Höchstwert) und Uhrzeit der Messung08:45:00 Uhr3.60 °C
Taupunkt (Minimum / Tiefstwert) und Uhrzeit der Messung23:30:00-3.80 °C
Anzahl der automatisch eingelesenen Messwerte 96

Detaillierte Wetter- und Klima- Messwerte für den 17.04.2015 in Holzhau im Erzgebirge (630m ü.NN)
ZeitTemperaturLuftdruckRel. LuftfeuchteWindWindrichtungWindchillTaupunktNiederschlag l/m²
23:45:00-1.20 °C1014.80 hPa85.00 %-3.70 °C 
23:30:00-1.40 °C1014.80 hPa85.00 %-3.80 °C 
23:15:00-1.20 °C1014.70 hPa84.00 %-3.80 °C 
23:00:00-1.00 °C1014.50 hPa83.00 %-3.80 °C 
22:45:00-0.60 °C1014.40 hPa83.00 %-3.40 °C 
22:30:00-0.40 °C1014.30 hPa81.00 %-3.60 °C 
22:15:000.10 °C1014.20 hPa80.00 %-2.90 °C 
22:00:000.80 °C1014.30 hPa79.00 %-2.40 °C 
21:45:001.40 °C1014.10 hPa79.00 %-1.80 °C 
21:30:001.90 °C1013.80 hPa77.00 %-1.70 °C 
21:15:002.30 °C1013.70 hPa76.00 %-1.50 °C 
21:00:002.90 °C1013.50 hPa75.00 %-1.10 °C 
20:45:003.60 °C1013.50 hPa74.00 %-0.60 °C 
20:30:003.80 °C1013.10 hPa74.00 %6.12 km/hNW2.30 °C-0.40 °C 
20:15:004.20 °C1013.00 hPa74.00 %0.00 °C 
20:00:004.40 °C1012.90 hPa74.00 %0.20 °C 
19:45:004.50 °C1012.70 hPa72.00 %-0.10 °C 
19:30:004.70 °C1012.50 hPa71.00 %-0.10 °C 
19:15:004.90 °C1012.30 hPa70.00 %-0.10 °C 
19:00:004.90 °C1012.20 hPa70.00 %-0.10 °C 
18:45:005.20 °C1012.10 hPa69.00 %0.00 °C 
18:30:005.40 °C1012.10 hPa68.00 %0.00 °C 
18:15:005.60 °C1012.10 hPa68.00 %0.20 °C 
18:00:005.70 °C1012.10 hPa68.00 %0.30 °C 
17:45:005.80 °C1011.80 hPa67.00 %5.04 km/hNNW5.00 °C0.20 °C 
17:30:006.40 °C1011.50 hPa62.00 %6.84 km/hWSW5.10 °C-0.30 °C 
17:15:006.90 °C1011.70 hPa61.00 %5.40 km/hWNW6.10 °C-0.10 °C 
17:00:006.90 °C1011.60 hPa60.00 %-0.30 °C 
16:45:006.90 °C1011.40 hPa60.00 %-0.30 °C 
16:30:007.40 °C1011.60 hPa60.00 %8.64 km/hWNW5.80 °C0.20 °C 
16:15:007.90 °C1011.50 hPa57.00 %-0.10 °C 
16:00:008.30 °C1011.40 hPa54.00 %6.48 km/hWNW7.40 °C-0.40 °C 
15:45:008.60 °C1011.50 hPa56.00 %0.30 °C 
15:30:008.90 °C1011.30 hPa58.00 %1.10 °C 
15:15:009.30 °C1011.30 hPa55.00 %7.56 km/hNW8.30 °C0.70 °C 
15:00:009.90 °C1011.10 hPa53.00 %0.80 °C 
14:45:009.70 °C1010.90 hPa56.00 %10.08 km/hWNW8.30 °C1.40 °C 
14:30:008.80 °C1011.20 hPa57.00 %9.00 km/hWNW7.40 °C0.80 °C 
14:15:008.90 °C1010.90 hPa58.00 %10.08 km/hNW7.30 °C1.10 °C 
14:00:009.00 °C1011.10 hPa58.00 %1.20 °C 
13:45:009.00 °C1011.30 hPa63.00 %2.30 °C 
13:30:009.40 °C1011.40 hPa61.00 %2.30 °C 
13:15:009.00 °C1011.60 hPa63.00 %2.30 °C 
13:00:008.40 °C1011.50 hPa64.00 %2.00 °C 
12:45:008.30 °C1011.50 hPa63.00 %4.32 km/hWNW8.30 °C1.70 °C 
12:30:008.40 °C1011.60 hPa62.00 %6.48 km/hONO7.50 °C1.60 °C 
12:15:008.30 °C1011.40 hPa63.00 %1.70 °C 
12:00:009.10 °C1011.40 hPa59.00 %1.50 °C 
11:45:009.60 °C1011.30 hPa60.00 %2.20 °C 
11:30:009.50 °C1011.30 hPa60.00 %2.10 °C 
11:15:009.10 °C1011.30 hPa62.00 %2.20 °C 
11:00:008.40 °C1011.40 hPa63.00 %1.80 °C 
10:45:008.70 °C1011.50 hPa63.00 %2.10 °C 
10:30:008.40 °C1011.40 hPa62.00 %1.60 °C 
10:15:008.00 °C1011.20 hPa67.00 %2.30 °C 
10:00:007.60 °C1011.30 hPa67.00 %5.76 km/hONO6.80 °C1.90 °C 
09:45:008.60 °C1011.10 hPa63.00 %6.48 km/hWNW7.70 °C2.00 °C 
09:30:008.40 °C1010.80 hPa67.00 %2.60 °C 
09:15:007.80 °C1010.80 hPa71.00 %2.90 °C 
09:00:007.50 °C1010.80 hPa74.00 %3.20 °C 
08:45:006.80 °C1010.90 hPa80.00 %3.60 °C 
08:30:005.60 °C1010.80 hPa84.00 %3.10 °C 
08:15:004.90 °C1010.80 hPa87.00 %2.90 °C 
08:00:003.80 °C1010.70 hPa88.00 %2.00 °C 
07:45:002.40 °C1010.80 hPa89.00 %0.80 °C 
07:30:001.30 °C1010.80 hPa89.00 %-0.30 °C 
07:15:000.60 °C1010.60 hPa89.00 %-1.00 °C 
07:00:000.10 °C1010.60 hPa88.00 %-1.60 °C 
06:45:000.20 °C1010.50 hPa88.00 %-1.50 °C 
06:30:000.20 °C1010.30 hPa87.00 %-1.70 °C 
06:15:000.30 °C1010.40 hPa87.00 %-1.60 °C 
06:00:000.70 °C1010.20 hPa87.00 %-1.20 °C 
05:45:001.10 °C1010.20 hPa86.00 %-1.00 °C 
05:30:001.40 °C1010.30 hPa86.00 %-0.70 °C 
05:15:001.60 °C1010.50 hPa86.00 %-0.50 °C 
05:00:001.80 °C1010.70 hPa86.00 %-0.30 °C 
04:45:001.80 °C1010.70 hPa86.00 %-0.30 °C 
04:30:001.90 °C1010.70 hPa86.00 %-0.20 °C 
04:15:002.10 °C1010.70 hPa86.00 %0.00 °C 
04:00:002.10 °C1011.10 hPa85.00 %-0.20 °C 
03:45:002.40 °C1011.10 hPa85.00 %0.10 °C 
03:30:002.60 °C1010.90 hPa84.00 %0.20 °C 
03:15:002.80 °C1011.40 hPa84.00 %0.40 °C 
03:00:003.30 °C1010.60 hPa84.00 %0.90 °C 
02:45:003.40 °C1010.70 hPa83.00 %0.80 °C 
02:30:003.60 °C1010.60 hPa83.00 %1.00 °C 
02:15:003.80 °C1011.10 hPa82.00 %1.00 °C 
02:00:004.20 °C1011.20 hPa82.00 %1.40 °C 
01:45:004.40 °C1011.00 hPa83.00 %1.80 °C 
01:30:004.40 °C1011.30 hPa82.00 %1.60 °C 
01:15:004.50 °C1011.00 hPa82.00 %1.70 °C 
01:00:004.70 °C1011.30 hPa81.00 %1.70 °C 
00:45:005.20 °C1011.30 hPa80.00 %2.00 °C 
00:30:005.50 °C1011.30 hPa80.00 %2.30 °C 
00:15:005.70 °C1011.50 hPa80.00 %2.50 °C 
00:00:005.90 °C1011.50 hPa79.00 %2.50 °C 

Permanenter Link zu dieser Seite: Wetter im Erzgebirge am 17.04.2015
Performance-Info: Die Erstellung der Seite / Statistik(en) / Tabelle(n) erforderte 5 Datenbankserver-Abfrage(n) und dauerte 90 Millisekunden. (Dieser Messwert ist von der Gesamt-Auslastung des Servers abhängig.)
Erzgebirge - Wetter | Erzgebirge - Wetter (Mobilgeräte) | Komplette Klimadatenbank